Time;durP1;ratioP1;P1;durP2;ratioP2;P2;SDS_P1;SDS_P2;PMS_P1;PMS_P2;Temp;Humidity;BMP_temperature;BMP_pressure;BME280_temperature;BME280_humidity;BME280_pressure;Samples;Min_cycle;Max_cycle;Signal;HPM_P1;HPM_P2
2022/05/14 00:00:50;;;;;;;13.10;3.50;;;;;;;;;;4991788;28;20479;-66
2022/05/14 00:03:17;;;;;;;14.07;3.50;;;;;;;;;;4991689;28;20027;-66
2022/05/14 00:05:43;;;;;;;13.48;2.92;;;;;;;;;;4992105;28;20045;-66
2022/05/14 00:08:10;;;;;;;8.98;3.08;;;;;;;;;;4991650;28;20121;-66
2022/05/14 00:13:03;;;;;;;14.13;3.38;;;;;;;;;;4992194;28;20076;-66
2022/05/14 00:13:24;;;;;;;16.60;3.47;;;;;;;;;;4991610;28;20027;-66
2022/05/14 00:15:50;;;;;;;11.10;3.40;;;;;;;;;;4995008;28;20030;-66
2022/05/14 00:18:16;;;;;;;20.10;5.13;;;;;;;;;;5010909;28;20046;-66
2022/05/14 00:20:42;;;;;;;16.60;5.18;;;;;;;;;;5011112;28;20034;-66
2022/05/14 00:23:08;;;;;;;12.75;4.03;;;;;;;;;;5011159;28;20391;-66
2022/05/14 00:25:35;;;;;;;17.70;4.43;;;;;;;;;;5010208;28;20375;-67
2022/05/14 00:28:01;;;;;;;19.08;4.13;;;;;;;;;;5009492;28;20027;-66
2022/05/14 00:30:29;;;;;;;17.65;3.85;;;;;;;;;;4995251;28;20026;-66
2022/05/14 00:32:55;;;;;;;16.38;3.35;;;;;;;;;;4995154;28;20590;-66
2022/05/14 00:35:22;;;;;;;15.77;3.33;;;;;;;;;;4997873;28;20476;-66
2022/05/14 00:37:48;;;;;;;12.68;3.50;;;;;;;;;;5014542;28;20032;-65
2022/05/14 00:40:16;;;;;;;11.52;3.30;;;;;;;;;;5014887;28;20058;-65
2022/05/14 00:42:42;;;;;;;11.77;2.95;;;;;;;;;;5014995;28;20051;-65
2022/05/14 00:45:09;;;;;;;14.15;2.65;;;;;;;;;;5008505;28;20041;-65
2022/05/14 00:47:38;;;;;;;13.63;2.70;;;;;;;;;;5014662;28;20068;-66
2022/05/14 00:50:10;;;;;;;10.10;2.70;;;;;;;;;;5029637;28;20038;-65
2022/05/14 00:52:36;;;;;;;11.90;3.25;;;;;;;;;;5014266;28;20022;-65
2022/05/14 00:55:04;;;;;;;9.75;2.40;;;;;;;;;;5014087;28;20034;-65
2022/05/14 00:57:39;;;;;;;11.45;2.88;;;;;;;;;;5013983;28;20494;-66
2022/05/14 01:00:13;;;;;;;16.77;2.70;;;;;;;;;;5013056;28;20054;-65
2022/05/14 01:02:39;;;;;;;11.32;2.80;;;;;;;;;;5003617;28;20026;-66
2022/05/14 01:05:06;;;;;;;13.27;2.60;;;;;;;;;;5013958;28;20045;-66
2022/05/14 01:07:32;;;;;;;14.98;3.45;;;;;;;;;;5011796;28;20026;-65
2022/05/14 01:10:01;;;;;;;11.40;2.60;;;;;;;;;;5010890;28;20042;-66
2022/05/14 01:12:28;;;;;;;14.48;3.05;;;;;;;;;;5012659;28;20030;-66
2022/05/14 01:14:54;;;;;;;17.35;3.22;;;;;;;;;;5001397;28;20057;-66
2022/05/14 01:17:20;;;;;;;13.63;2.72;;;;;;;;;;4994502;28;20030;-66
2022/05/14 01:19:46;;;;;;;24.27;3.45;;;;;;;;;;5004739;28;20037;-66
2022/05/14 01:22:34;;;;;;;15.07;2.90;;;;;;;;;;5014052;28;20030;-66
2022/05/14 01:28:04;;;;;;;13.73;2.58;;;;;;;;;;5014331;28;20053;-66
2022/05/14 01:30:31;;;;;;;14.10;3.10;;;;;;;;;;5013996;28;20080;-66
2022/05/14 01:33:07;;;;;;;14.20;2.95;;;;;;;;;;5014146;28;20022;-66
2022/05/14 01:35:37;;;;;;;14.35;2.70;;;;;;;;;;5007489;28;20022;-66
2022/05/14 01:38:03;;;;;;;9.77;2.35;;;;;;;;;;5013308;28;20080;-66
2022/05/14 01:40:30;;;;;;;8.60;3.10;;;;;;;;;;4997115;28;20026;-66
2022/05/14 01:42:56;;;;;;;6.53;2.40;;;;;;;;;;4994241;28;20471;-66
2022/05/14 01:45:23;;;;;;;13.80;3.00;;;;;;;;;;4998949;28;20045;-65
2022/05/14 01:47:49;;;;;;;15.85;3.08;;;;;;;;;;5013522;28;20029;-66
2022/05/14 01:50:15;;;;;;;11.90;2.70;;;;;;;;;;5009835;28;20088;-66
2022/05/14 01:52:41;;;;;;;10.85;3.20;;;;;;;;;;4995962;28;20026;-66
2022/05/14 01:55:07;;;;;;;14.45;3.03;;;;;;;;;;5012584;28;20470;-66
2022/05/14 01:57:33;;;;;;;10.38;3.15;;;;;;;;;;5013611;28;20105;-66
2022/05/14 02:00:00;;;;;;;12.52;3.70;;;;;;;;;;5013497;28;20037;-67
2022/05/14 02:02:26;;;;;;;12.05;3.30;;;;;;;;;;5013401;28;20022;-66
2022/05/14 02:04:52;;;;;;;11.27;2.70;;;;;;;;;;5012821;28;20033;-66
2022/05/14 02:07:18;;;;;;;17.08;3.10;;;;;;;;;;4993796;28;20030;-66
2022/05/14 02:09:44;;;;;;;17.95;3.35;;;;;;;;;;5009615;28;20089;-66
2022/05/14 02:12:10;;;;;;;17.58;3.45;;;;;;;;;;5012242;28;20030;-66
2022/05/14 02:14:36;;;;;;;14.20;3.10;;;;;;;;;;5012901;28;20030;-65
2022/05/14 02:17:03;;;;;;;11.93;2.38;;;;;;;;;;5012373;28;20061;-65
2022/05/14 02:19:29;;;;;;;18.10;2.75;;;;;;;;;;5012460;28;20393;-66
2022/05/14 02:21:55;;;;;;;12.50;2.60;;;;;;;;;;5012867;28;20084;-66
2022/05/14 02:24:21;;;;;;;17.83;3.00;;;;;;;;;;4996757;28;20486;-66
2022/05/14 02:26:47;;;;;;;12.57;3.38;;;;;;;;;;4996012;28;20038;-65
2022/05/14 02:29:13;;;;;;;13.88;2.67;;;;;;;;;;5012612;28;20092;-65
2022/05/14 02:31:39;;;;;;;9.95;2.60;;;;;;;;;;5012404;28;20037;-65
2022/05/14 02:34:05;;;;;;;12.95;3.88;;;;;;;;;;5002928;28;20498;-65
2022/05/14 02:36:31;;;;;;;15.52;3.10;;;;;;;;;;4999235;28;20497;-65
2022/05/14 02:38:57;;;;;;;11.43;3.42;;;;;;;;;;5010053;28;20029;-65
2022/05/14 02:41:23;;;;;;;13.07;2.92;;;;;;;;;;4993240;28;20035;-66
2022/05/14 02:43:50;;;;;;;11.05;3.03;;;;;;;;;;4996770;28;20029;-66
2022/05/14 02:46:16;;;;;;;11.20;3.10;;;;;;;;;;5012416;28;20045;-66
2022/05/14 02:48:42;;;;;;;12.00;2.63;;;;;;;;;;5008766;28;20497;-66
2022/05/14 02:51:08;;;;;;;10.32;3.10;;;;;;;;;;5012292;28;20034;-66
2022/05/14 02:53:34;;;;;;;16.58;2.90;;;;;;;;;;5003080;28;20030;-66
2022/05/14 02:56:00;;;;;;;18.52;3.40;;;;;;;;;;4992647;28;20026;-66
2022/05/14 03:01:12;;;;;;;16.42;2.78;;;;;;;;;;4999311;28;20145;-66
2022/05/14 03:03:38;;;;;;;10.93;2.42;;;;;;;;;;5011574;28;20052;-66
2022/05/14 03:06:04;;;;;;;15.23;3.65;;;;;;;;;;5012151;28;20045;-66
2022/05/14 03:08:30;;;;;;;16.05;3.17;;;;;;;;;;5012333;28;20034;-66
2022/05/14 03:10:57;;;;;;;13.43;2.75;;;;;;;;;;5008697;28;20034;-67
2022/05/14 03:13:23;;;;;;;15.18;3.85;;;;;;;;;;5004199;28;20060;-66
2022/05/14 03:15:49;;;;;;;16.23;3.78;;;;;;;;;;4992462;28;20038;-67
2022/05/14 03:18:15;;;;;;;16.83;3.50;;;;;;;;;;4998944;28;20025;-66
2022/05/14 03:20:42;;;;;;;16.85;3.25;;;;;;;;;;5011526;28;20105;-66
2022/05/14 03:23:09;;;;;;;12.20;3.42;;;;;;;;;;5011299;28;20052;-66
2022/05/14 03:25:35;;;;;;;13.55;2.95;;;;;;;;;;5026714;28;20044;-66
2022/05/14 03:28:01;;;;;;;21.63;3.70;;;;;;;;;;5011546;28;20026;-66
2022/05/14 03:30:27;;;;;;;14.77;2.92;;;;;;;;;;5011555;28;20044;-66
2022/05/14 03:32:53;;;;;;;12.75;3.50;;;;;;;;;;5008808;28;20037;-66
2022/05/14 03:35:19;;;;;;;15.13;3.20;;;;;;;;;;4999307;28;20024;-66
2022/05/14 03:37:45;;;;;;;17.13;3.58;;;;;;;;;;5010904;28;20073;-66
2022/05/14 03:40:12;;;;;;;12.80;3.00;;;;;;;;;;5007182;28;20030;-66
2022/05/14 03:42:38;;;;;;;14.00;2.78;;;;;;;;;;5007191;28;20034;-66
2022/05/14 03:45:04;;;;;;;22.90;4.15;;;;;;;;;;5011484;28;20038;-66
2022/05/14 03:47:30;;;;;;;12.15;2.83;;;;;;;;;;5010536;28;20037;-66
2022/05/14 03:49:56;;;;;;;9.63;2.25;;;;;;;;;;5011186;28;20100;-66
2022/05/14 03:52:23;;;;;;;12.63;3.10;;;;;;;;;;5010548;28;20025;-66
2022/05/14 03:54:49;;;;;;;10.77;3.08;;;;;;;;;;5006589;28;20052;-66
2022/05/14 03:57:15;;;;;;;11.70;2.97;;;;;;;;;;5026491;28;20398;-66
2022/05/14 03:59:41;;;;;;;14.27;3.60;;;;;;;;;;5010939;28;20026;-66
2022/05/14 04:02:07;;;;;;;13.10;3.30;;;;;;;;;;5011058;28;20111;-66
2022/05/14 04:04:34;;;;;;;15.10;3.47;;;;;;;;;;5005217;28;20034;-66
2022/05/14 04:07:00;;;;;;;13.25;3.30;;;;;;;;;;5010903;28;20506;-65
2022/05/14 04:09:26;;;;;;;19.60;4.05;;;;;;;;;;5002425;28;20415;-65
2022/05/14 04:11:53;;;;;;;11.45;3.33;;;;;;;;;;4991271;28;20033;-66
2022/05/14 04:14:19;;;;;;;16.25;3.42;;;;;;;;;;5015025;28;20483;-66
2022/05/14 04:16:45;;;;;;;13.90;3.50;;;;;;;;;;4991266;28;20030;-66
2022/05/14 04:19:12;;;;;;;13.63;3.33;;;;;;;;;;4991107;28;20054;-66
2022/05/14 04:21:38;;;;;;;11.30;3.50;;;;;;;;;;4991473;28;20030;-65
2022/05/14 04:24:04;;;;;;;12.65;3.10;;;;;;;;;;4991500;28;20026;-66
2022/05/14 04:26:31;;;;;;;13.05;3.70;;;;;;;;;;5000364;28;20092;-66
2022/05/14 04:28:57;;;;;;;14.00;4.22;;;;;;;;;;5009941;28;20030;-65
2022/05/14 04:31:23;;;;;;;13.07;3.70;;;;;;;;;;5010722;28;20040;-66
2022/05/14 04:33:50;;;;;;;11.10;3.45;;;;;;;;;;5006685;28;20471;-65
2022/05/14 04:36:16;;;;;;;12.85;4.50;;;;;;;;;;4994995;28;20018;-66
2022/05/14 04:38:42;;;;;;;15.13;4.68;;;;;;;;;;5010631;28;20026;-65
2022/05/14 04:41:08;;;;;;;14.40;4.20;;;;;;;;;;5010828;28;20026;-66
2022/05/14 04:43:34;;;;;;;18.55;4.18;;;;;;;;;;5002621;28;20073;-66
2022/05/14 04:46:01;;;;;;;10.35;3.70;;;;;;;;;;5010709;28;20033;-66
2022/05/14 04:48:27;;;;;;;12.90;3.75;;;;;;;;;;5010954;28;20017;-66
2022/05/14 04:50:54;;;;;;;13.68;4.22;;;;;;;;;;5011151;28;20050;-66
2022/05/14 04:53:20;;;;;;;14.38;3.78;;;;;;;;;;5008828;28;20517;-65
2022/05/14 04:55:47;;;;;;;15.23;4.05;;;;;;;;;;4991305;28;20030;-65
2022/05/14 04:58:13;;;;;;;12.27;3.78;;;;;;;;;;5001228;28;20030;-66
2022/05/14 05:00:41;;;;;;;10.85;3.88;;;;;;;;;;5000059;28;20061;-65
2022/05/14 05:03:19;;;;;;;11.88;4.30;;;;;;;;;;5011244;28;20462;-66
2022/05/14 05:05:46;;;;;;;12.80;3.65;;;;;;;;;;5010760;28;20037;-66
2022/05/14 05:08:13;;;;;;;13.23;3.75;;;;;;;;;;5010806;28;20021;-65
2022/05/14 05:10:39;;;;;;;16.38;4.03;;;;;;;;;;5005353;28;20049;-66
2022/05/14 05:13:08;;;;;;;11.75;3.38;;;;;;;;;;5000054;28;20031;-66
2022/05/14 05:15:35;;;;;;;15.00;3.83;;;;;;;;;;4999273;28;20371;-66
2022/05/14 05:18:01;;;;;;;12.38;4.70;;;;;;;;;;5022060;28;20025;-66
2022/05/14 05:20:27;;;;;;;9.10;3.40;;;;;;;;;;5013788;28;20068;-66
2022/05/14 05:22:53;;;;;;;11.65;3.50;;;;;;;;;;5013935;28;20021;-65
2022/05/14 05:25:19;;;;;;;9.52;3.17;;;;;;;;;;5013825;28;20057;-66
2022/05/14 05:27:45;;;;;;;7.78;3.10;;;;;;;;;;5014021;28;20029;-66
2022/05/14 05:30:12;;;;;;;15.32;3.35;;;;;;;;;;5013795;28;20030;-65
2022/05/14 05:32:38;;;;;;;9.95;3.45;;;;;;;;;;5013985;28;20034;-66
2022/05/14 05:35:05;;;;;;;14.00;3.58;;;;;;;;;;5000371;28;20058;-66
2022/05/14 05:37:31;;;;;;;12.15;3.70;;;;;;;;;;4994402;28;20026;-66
2022/05/14 05:39:57;;;;;;;9.45;4.60;;;;;;;;;;4994289;28;20028;-66
2022/05/14 05:42:23;;;;;;;13.45;4.20;;;;;;;;;;4994257;28;20080;-66
2022/05/14 05:44:49;;;;;;;15.38;4.45;;;;;;;;;;4994023;28;20046;-66
2022/05/14 05:47:16;;;;;;;10.50;3.72;;;;;;;;;;5009885;28;20022;-66
2022/05/14 05:49:42;;;;;;;18.88;4.10;;;;;;;;;;5013178;28;20441;-67
2022/05/14 05:52:09;;;;;;;16.67;4.78;;;;;;;;;;4999278;28;20065;-66
2022/05/14 05:57:28;;;;;;;11.70;3.53;;;;;;;;;;5006675;28;20045;-66
2022/05/14 05:59:54;;;;;;;12.70;3.42;;;;;;;;;;5013501;28;20402;-66
2022/05/14 06:02:21;;;;;;;8.98;3.00;;;;;;;;;;5013274;28;20033;-67
2022/05/14 06:04:47;;;;;;;24.88;3.95;;;;;;;;;;5012760;28;20041;-67
2022/05/14 06:07:13;;;;;;;18.08;4.03;;;;;;;;;;5013199;28;20034;-67
2022/05/14 06:09:39;;;;;;;14.52;3.90;;;;;;;;;;4996968;28;20379;-67
2022/05/14 06:12:06;;;;;;;11.50;3.83;;;;;;;;;;5010447;28;20077;-67
2022/05/14 06:14:33;;;;;;;15.57;4.40;;;;;;;;;;5012898;28;20073;-67
2022/05/14 06:16:59;;;;;;;14.25;4.63;;;;;;;;;;5011506;28;20028;-67
2022/05/14 06:19:25;;;;;;;13.65;4.72;;;;;;;;;;5012581;28;20038;-68
2022/05/14 06:21:51;;;;;;;12.23;3.88;;;;;;;;;;5013022;28;20034;-67
2022/05/14 06:24:17;;;;;;;15.15;4.28;;;;;;;;;;5027600;28;20033;-66
2022/05/14 06:26:43;;;;;;;16.85;5.15;;;;;;;;;;4993871;28;20033;-66
2022/05/14 06:29:10;;;;;;;13.48;4.93;;;;;;;;;;4992970;28;20033;-66
2022/05/14 06:31:36;;;;;;;16.88;5.45;;;;;;;;;;5007735;28;20104;-66
2022/05/14 06:34:02;;;;;;;20.38;6.85;;;;;;;;;;5003696;28;20034;-66
2022/05/14 06:36:28;;;;;;;11.20;3.72;;;;;;;;;;5009440;28;20026;-66
2022/05/14 06:38:55;;;;;;;14.18;3.67;;;;;;;;;;5008307;28;20040;-66
2022/05/14 06:41:21;;;;;;;18.80;3.85;;;;;;;;;;5006063;28;20033;-66
2022/05/14 06:43:47;;;;;;;12.18;3.72;;;;;;;;;;5007293;28;20037;-66
2022/05/14 06:46:13;;;;;;;16.70;4.18;;;;;;;;;;5008456;28;20071;-66
2022/05/14 06:48:40;;;;;;;12.25;3.88;;;;;;;;;;5012300;28;20030;-65
2022/05/14 06:51:07;;;;;;;17.48;3.80;;;;;;;;;;5010242;28;20030;-65
2022/05/14 06:53:34;;;;;;;18.58;4.30;;;;;;;;;;5011771;28;20033;-66
2022/05/14 06:56:00;;;;;;;12.95;3.70;;;;;;;;;;5008885;28;20022;-66
2022/05/14 06:58:29;;;;;;;12.40;3.38;;;;;;;;;;5011540;28;20022;-66
2022/05/14 07:00:55;;;;;;;8.35;2.83;;;;;;;;;;5002070;28;20076;-66
2022/05/14 07:07:07;;;;;;;15.35;2.92;;;;;;;;;;5012003;28;20124;-67
2022/05/14 07:09:03;;;;;;;11.68;3.20;;;;;;;;;;5007006;28;20034;-68
2022/05/14 07:11:29;;;;;;;10.57;3.50;;;;;;;;;;5010656;28;20053;-66
2022/05/14 07:13:55;;;;;;;17.73;3.03;;;;;;;;;;5006189;28;20390;-65
2022/05/14 07:16:21;;;;;;;13.60;2.90;;;;;;;;;;5010511;28;20032;-65
2022/05/14 07:18:47;;;;;;;18.55;3.25;;;;;;;;;;4999305;28;20050;-66
2022/05/14 07:21:14;;;;;;;12.18;3.38;;;;;;;;;;5006369;28;20084;-67
2022/05/14 07:23:40;;;;;;;13.45;3.28;;;;;;;;;;5009722;28;20026;-67
2022/05/14 07:26:07;;;;;;;18.63;3.15;;;;;;;;;;5011691;28;20058;-67
2022/05/14 07:28:33;;;;;;;15.43;2.80;;;;;;;;;;5010130;28;20022;-66
2022/05/14 07:31:01;;;;;;;14.70;3.03;;;;;;;;;;4999977;28;20041;-66
2022/05/14 07:33:27;;;;;;;19.23;3.35;;;;;;;;;;5006220;28;20486;-66
2022/05/14 07:35:53;;;;;;;14.35;3.30;;;;;;;;;;5008202;28;20057;-66
2022/05/14 07:38:19;;;;;;;14.63;3.35;;;;;;;;;;5003262;28;20148;-66
2022/05/14 07:40:46;;;;;;;16.60;3.60;;;;;;;;;;5005811;28;20030;-67
2022/05/14 07:43:15;;;;;;;13.93;3.90;;;;;;;;;;5007135;28;20029;-67
2022/05/14 07:45:43;;;;;;;15.48;5.05;;;;;;;;;;5005634;28;20125;-68
2022/05/14 07:48:14;;;;;;;17.60;4.28;;;;;;;;;;5003850;28;20494;-67
2022/05/14 07:50:40;;;;;;;16.88;4.03;;;;;;;;;;5004138;28;20040;-69
2022/05/14 07:53:07;;;;;;;14.20;4.00;;;;;;;;;;5008014;28;20033;-69
2022/05/14 07:55:34;;;;;;;15.63;3.95;;;;;;;;;;5006343;28;20025;-67
2022/05/14 07:58:00;;;;;;;15.88;4.63;;;;;;;;;;5007972;28;20536;-68
2022/05/14 08:00:26;;;;;;;18.40;4.82;;;;;;;;;;5010211;28;20033;-68
2022/05/14 08:02:53;;;;;;;15.75;4.25;;;;;;;;;;5010723;28;20030;-68
2022/05/14 08:05:22;;;;;;;15.13;4.03;;;;;;;;;;5010304;28;20037;-67
2022/05/14 08:07:49;;;;;;;17.35;5.00;;;;;;;;;;4998728;28;20030;-67
2022/05/14 08:10:16;;;;;;;14.68;4.13;;;;;;;;;;5038395;28;20022;-65
2022/05/14 08:12:46;;;;;;;17.27;4.65;;;;;;;;;;5010777;28;20018;-68
2022/05/14 08:15:13;;;;;;;15.20;3.70;;;;;;;;;;5010960;28;20463;-68
2022/05/14 08:17:39;;;;;;;12.00;3.60;;;;;;;;;;5009647;28;20034;-68
2022/05/14 08:20:06;;;;;;;15.77;3.80;;;;;;;;;;5004443;28;20096;-68
2022/05/14 08:25:17;;;;;;;17.48;3.88;;;;;;;;;;4997014;28;20821;-68
2022/05/14 08:27:47;;;;;;;12.65;3.40;;;;;;;;;;5002236;28;20389;-68
2022/05/14 08:30:14;;;;;;;17.55;3.38;;;;;;;;;;5020972;28;20034;-68
2022/05/14 08:32:40;;;;;;;11.93;2.75;;;;;;;;;;5007639;28;20025;-68
2022/05/14 08:35:06;;;;;;;13.23;2.90;;;;;;;;;;5005325;28;20100;-68
2022/05/14 08:37:32;;;;;;;10.93;2.38;;;;;;;;;;5002819;28;20023;-67
2022/05/14 08:39:59;;;;;;;10.57;2.47;;;;;;;;;;5009934;28;20030;-67
2022/05/14 08:42:34;;;;;;;12.43;2.92;;;;;;;;;;5008576;28;20033;-68
2022/05/14 08:45:00;;;;;;;15.60;3.53;;;;;;;;;;5007072;28;20061;-68
2022/05/14 08:47:28;;;;;;;11.70;2.38;;;;;;;;;;5006000;28;20399;-68
2022/05/14 08:49:55;;;;;;;11.25;2.50;;;;;;;;;;5007707;28;20037;-68
2022/05/14 08:52:26;;;;;;;7.68;2.40;;;;;;;;;;5008792;28;20196;-67
2022/05/14 08:55:04;;;;;;;11.63;2.67;;;;;;;;;;5005481;28;20479;-68
2022/05/14 08:57:30;;;;;;;9.75;2.85;;;;;;;;;;5010896;28;20120;-68
2022/05/14 08:59:57;;;;;;;10.63;2.65;;;;;;;;;;5006468;28;20055;-67
2022/05/14 09:02:28;;;;;;;8.90;2.10;;;;;;;;;;5008305;28;20018;-67
2022/05/14 09:05:02;;;;;;;11.15;2.50;;;;;;;;;;5006349;28;20064;-67
2022/05/14 09:07:29;;;;;;;14.48;3.10;;;;;;;;;;5009238;28;20026;-68
2022/05/14 09:09:56;;;;;;;10.35;2.58;;;;;;;;;;5000874;28;20105;-68
2022/05/14 09:12:24;;;;;;;9.05;2.08;;;;;;;;;;5013615;28;20040;-68
2022/05/14 09:14:54;;;;;;;14.45;2.40;;;;;;;;;;4997815;28;20041;-68
2022/05/14 09:17:22;;;;;;;12.13;2.55;;;;;;;;;;4994417;28;20042;-67
2022/05/14 09:19:49;;;;;;;12.57;2.70;;;;;;;;;;5012106;28;20092;-67
2022/05/14 09:22:32;;;;;;;11.50;2.47;;;;;;;;;;5011894;28;20030;-67
2022/05/14 09:25:25;;;;;;;9.93;2.35;;;;;;;;;;5012320;28;20025;-67
2022/05/14 09:27:51;;;;;;;13.18;2.35;;;;;;;;;;4993745;28;20105;-67
2022/05/14 09:30:26;;;;;;;8.82;2.22;;;;;;;;;;5002947;28;20018;-67
2022/05/14 09:32:52;;;;;;;8.75;2.30;;;;;;;;;;4999659;28;20057;-67
2022/05/14 09:35:20;;;;;;;13.30;2.50;;;;;;;;;;5005112;28;20033;-67
2022/05/14 09:37:46;;;;;;;9.52;2.08;;;;;;;;;;5013410;28;20036;-67
2022/05/14 09:40:20;;;;;;;10.80;2.05;;;;;;;;;;5013425;28;20148;-67
2022/05/14 09:42:48;;;;;;;12.40;2.58;;;;;;;;;;5013423;28;20038;-66
2022/05/14 09:45:40;;;;;;;10.15;2.60;;;;;;;;;;5013196;28;20029;-67
2022/05/14 09:48:10;;;;;;;8.77;2.20;;;;;;;;;;5013718;28;20053;-67
2022/05/14 09:50:36;;;;;;;10.60;2.58;;;;;;;;;;4994045;28;20026;-67
2022/05/14 09:53:04;;;;;;;10.70;2.10;;;;;;;;;;4993497;28;20372;-67
2022/05/14 09:55:54;;;;;;;10.88;2.47;;;;;;;;;;4993186;28;20038;-67
2022/05/14 09:58:31;;;;;;;8.15;2.17;;;;;;;;;;5001780;28;20049;-67
2022/05/14 10:01:03;;;;;;;12.90;2.40;;;;;;;;;;4998963;28;20034;-66
2022/05/14 10:03:52;;;;;;;11.65;2.20;;;;;;;;;;4993252;28;20056;-67
2022/05/14 10:06:19;;;;;;;10.93;1.77;;;;;;;;;;4996060;28;20125;-67
2022/05/14 10:08:49;;;;;;;11.77;2.20;;;;;;;;;;5010497;28;20026;-67
2022/05/14 10:11:22;;;;;;;11.02;1.88;;;;;;;;;;4999545;28;20097;-67
2022/05/14 10:14:13;;;;;;;11.98;2.30;;;;;;;;;;5003536;28;20026;-67
2022/05/14 10:16:48;;;;;;;9.93;2.17;;;;;;;;;;5008449;28;20087;-67
2022/05/14 10:19:23;;;;;;;11.52;2.25;;;;;;;;;;5009875;28;20069;-67
2022/05/14 10:22:01;;;;;;;11.38;2.58;;;;;;;;;;5025483;28;20034;-66
2022/05/14 10:27:25;;;;;;;10.25;2.55;;;;;;;;;;4992835;28;20049;-67
2022/05/14 10:30:14;;;;;;;11.43;2.15;;;;;;;;;;4992797;28;20031;-67
2022/05/14 10:32:41;;;;;;;9.05;2.05;;;;;;;;;;4993177;28;20125;-67
2022/05/14 10:35:19;;;;;;;9.52;2.10;;;;;;;;;;4992870;28;20458;-67
2022/05/14 10:37:53;;;;;;;11.80;2.38;;;;;;;;;;4992524;28;20026;-67
2022/05/14 10:40:19;;;;;;;8.82;2.22;;;;;;;;;;4993268;28;20145;-67
2022/05/14 10:42:54;;;;;;;8.57;2.53;;;;;;;;;;4992711;28;20499;-67
2022/05/14 10:45:20;;;;;;;13.25;2.42;;;;;;;;;;4992478;28;20027;-67
2022/05/14 10:47:49;;;;;;;8.50;2.50;;;;;;;;;;4994936;28;20026;-67
2022/05/14 10:50:17;;;;;;;11.48;2.55;;;;;;;;;;5016677;28;20030;-67
2022/05/14 10:52:44;;;;;;;10.75;2.35;;;;;;;;;;5009736;28;20041;-67
2022/05/14 10:55:24;;;;;;;9.38;2.17;;;;;;;;;;5008536;28;20383;-67
2022/05/14 10:57:58;;;;;;;9.35;2.38;;;;;;;;;;5000046;28;20161;-67
2022/05/14 11:00:31;;;;;;;16.67;2.30;;;;;;;;;;4992093;28;20069;-68
2022/05/14 11:03:00;;;;;;;12.43;2.28;;;;;;;;;;4990854;28;20058;-67
2022/05/14 11:05:27;;;;;;;8.35;2.13;;;;;;;;;;4989937;28;20062;-67
2022/05/14 11:07:53;;;;;;;8.60;2.00;;;;;;;;;;5007344;28;20022;-66
2022/05/14 11:10:31;;;;;;;7.80;2.13;;;;;;;;;;5010407;28;20463;-68
2022/05/14 11:13:08;;;;;;;9.23;2.08;;;;;;;;;;5011341;28;20057;-67
2022/05/14 11:15:34;;;;;;;9.70;2.53;;;;;;;;;;4994372;28;20065;-67
2022/05/14 11:18:12;;;;;;;11.05;2.22;;;;;;;;;;4992061;28;20034;-67
2022/05/14 11:20:38;;;;;;;9.98;2.20;;;;;;;;;;4991718;28;20061;-66
2022/05/14 11:23:14;;;;;;;11.43;2.25;;;;;;;;;;4991497;28;20035;-67
2022/05/14 11:25:40;;;;;;;9.43;1.95;;;;;;;;;;4991598;28;20038;-67
2022/05/14 11:28:14;;;;;;;9.35;2.22;;;;;;;;;;5006752;28;20112;-67
2022/05/14 11:30:42;;;;;;;10.68;2.10;;;;;;;;;;5007287;28;20557;-67
2022/05/14 11:33:26;;;;;;;9.95;2.03;;;;;;;;;;4992003;28;20041;-67
2022/05/14 11:36:12;;;;;;;11.63;2.22;;;;;;;;;;4991564;28;20455;-68
2022/05/14 11:38:40;;;;;;;11.35;2.47;;;;;;;;;;4990974;28;20073;-67
2022/05/14 11:41:11;;;;;;;13.85;2.60;;;;;;;;;;4991600;28;20087;-67
2022/05/14 11:43:39;;;;;;;9.75;2.15;;;;;;;;;;4991747;28;20042;-67
2022/05/14 11:46:25;;;;;;;8.60;2.30;;;;;;;;;;4997397;28;20030;-67
2022/05/14 11:48:57;;;;;;;8.88;1.92;;;;;;;;;;5006333;28;20030;-67
2022/05/14 11:51:47;;;;;;;11.20;2.20;;;;;;;;;;5011078;28;20033;-67
2022/05/14 11:54:16;;;;;;;11.77;2.22;;;;;;;;;;5011192;28;20033;-67
2022/05/14 11:56:53;;;;;;;12.10;2.15;;;;;;;;;;5011174;28;20037;-67
2022/05/14 11:59:26;;;;;;;13.30;2.40;;;;;;;;;;5010369;28;20525;-67
2022/05/14 12:01:53;;;;;;;10.07;2.10;;;;;;;;;;5006079;28;20479;-67
2022/05/14 12:04:30;;;;;;;10.73;1.92;;;;;;;;;;5008122;28;20085;-67
2022/05/14 12:06:56;;;;;;;10.02;2.17;;;;;;;;;;5024178;28;20046;-67
2022/05/14 12:09:41;;;;;;;10.50;2.20;;;;;;;;;;5009696;28;20474;-67
2022/05/14 12:12:26;;;;;;;11.70;2.75;;;;;;;;;;5006699;28;20118;-67
2022/05/14 12:14:52;;;;;;;10.63;2.03;;;;;;;;;;5007498;28;20068;-67
2022/05/14 12:17:21;;;;;;;9.73;2.63;;;;;;;;;;5004554;28;20023;-66
2022/05/14 12:19:53;;;;;;;9.98;2.28;;;;;;;;;;5008535;28;20042;-67
2022/05/14 12:22:20;;;;;;;7.40;1.67;;;;;;;;;;5005459;28;20541;-66
2022/05/14 12:25:13;;;;;;;9.77;2.50;;;;;;;;;;5008035;28;20143;-66
2022/05/14 12:27:47;;;;;;;8.13;1.63;;;;;;;;;;5013806;28;20048;-67
2022/05/14 12:30:13;;;;;;;11.07;2.08;;;;;;;;;;5015098;28;20038;-67
2022/05/14 12:35:34;;;;;;;11.93;2.22;;;;;;;;;;5014706;28;20053;-67
2022/05/14 12:38:00;;;;;;;9.40;1.92;;;;;;;;;;5014289;28;20033;-68
2022/05/14 12:40:27;;;;;;;10.18;2.40;;;;;;;;;;5005511;28;20500;-67
2022/05/14 12:42:53;;;;;;;11.85;2.30;;;;;;;;;;5014780;28;20080;-67
2022/05/14 12:45:19;;;;;;;7.18;1.92;;;;;;;;;;5005980;28;20023;-65
2022/05/14 12:47:47;;;;;;;8.38;1.80;;;;;;;;;;5007884;28;20093;-67
2022/05/14 12:50:25;;;;;;;9.73;2.05;;;;;;;;;;5016602;28;20549;-66
2022/05/14 12:52:59;;;;;;;8.45;1.90;;;;;;;;;;5008445;28;20557;-67
2022/05/14 12:55:26;;;;;;;8.13;2.10;;;;;;;;;;5025477;28;20037;-67
2022/05/14 12:57:53;;;;;;;7.32;2.08;;;;;;;;;;4997818;28;20030;-67
2022/05/14 13:00:20;;;;;;;9.70;2.03;;;;;;;;;;4994863;28;20027;-67
2022/05/14 13:02:49;;;;;;;7.90;2.05;;;;;;;;;;4994608;28;20022;-66
2022/05/14 13:05:19;;;;;;;6.47;1.85;;;;;;;;;;4994397;28;20038;-66
2022/05/14 13:07:50;;;;;;;10.02;1.83;;;;;;;;;;4994267;28;20038;-67
2022/05/14 13:10:17;;;;;;;12.60;2.30;;;;;;;;;;4994800;28;20030;-66
2022/05/14 13:12:48;;;;;;;7.68;2.10;;;;;;;;;;4995008;28;20120;-67
2022/05/14 13:15:14;;;;;;;7.38;1.60;;;;;;;;;;4994992;28;20030;-67
2022/05/14 13:17:41;;;;;;;11.38;1.95;;;;;;;;;;5014032;28;20026;-67
2022/05/14 13:20:19;;;;;;;9.40;2.03;;;;;;;;;;5013751;28;20046;-67
2022/05/14 13:22:45;;;;;;;6.30;1.85;;;;;;;;;;5013860;28;20034;-67
2022/05/14 13:25:38;;;;;;;11.25;1.98;;;;;;;;;;5014122;28;20108;-67
2022/05/14 13:28:13;;;;;;;9.10;1.92;;;;;;;;;;5014273;28;20088;-66
2022/05/14 13:30:40;;;;;;;9.45;1.75;;;;;;;;;;5003123;28;20030;-65
2022/05/14 13:33:08;;;;;;;10.02;1.80;;;;;;;;;;4993557;28;20553;-66
2022/05/14 13:38:20;;;;;;;8.15;1.70;;;;;;;;;;4994895;28;20097;-66
2022/05/14 13:40:49;;;;;;;11.00;2.45;;;;;;;;;;4994170;28;20030;-66
2022/05/14 13:43:22;;;;;;;8.77;1.85;;;;;;;;;;4994048;28;20388;-66
2022/05/14 13:45:53;;;;;;;7.53;1.80;;;;;;;;;;4997909;28;20046;-66
2022/05/14 13:48:23;;;;;;;9.68;2.17;;;;;;;;;;5003476;28;20026;-66
2022/05/14 13:51:00;;;;;;;10.75;2.17;;;;;;;;;;5007781;28;20080;-68
2022/05/14 13:53:32;;;;;;;10.40;2.00;;;;;;;;;;5011025;28;20420;-65
2022/05/14 13:56:10;;;;;;;11.23;1.92;;;;;;;;;;5001620;28;20125;-66
2022/05/14 13:58:37;;;;;;;9.13;2.45;;;;;;;;;;4992752;28;20027;-66
2022/05/14 14:01:03;;;;;;;13.50;2.35;;;;;;;;;;5003240;28;20030;-66
2022/05/14 14:03:31;;;;;;;7.97;2.00;;;;;;;;;;5009511;28;20029;-66
2022/05/14 14:05:57;;;;;;;9.73;2.38;;;;;;;;;;4993457;28;20039;-66
2022/05/14 14:08:29;;;;;;;9.55;2.35;;;;;;;;;;4999326;28;20064;-66
2022/05/14 14:10:56;;;;;;;10.43;2.10;;;;;;;;;;5003835;28;20430;-67
2022/05/14 14:13:22;;;;;;;10.98;2.28;;;;;;;;;;5012780;28;20029;-66
2022/05/14 14:15:48;;;;;;;8.48;2.20;;;;;;;;;;5012561;28;20233;-66
2022/05/14 14:18:15;;;;;;;11.65;2.40;;;;;;;;;;5012649;28;20037;-66
2022/05/14 14:20:44;;;;;;;9.23;1.92;;;;;;;;;;5010042;28;20050;-66
2022/05/14 14:23:11;;;;;;;8.20;2.35;;;;;;;;;;4993000;28;20081;-66
2022/05/14 14:25:40;;;;;;;7.90;2.05;;;;;;;;;;4993089;28;20129;-66
2022/05/14 14:28:07;;;;;;;9.85;2.42;;;;;;;;;;4992974;28;20037;-67
2022/05/14 14:30:33;;;;;;;8.73;1.98;;;;;;;;;;4993098;28;20032;-66
2022/05/14 14:32:59;;;;;;;9.48;1.85;;;;;;;;;;4993035;28;20027;-66
2022/05/14 14:35:25;;;;;;;7.05;2.00;;;;;;;;;;4992668;28;20129;-66
2022/05/14 14:37:51;;;;;;;10.82;2.42;;;;;;;;;;4993245;28;20024;-66
2022/05/14 14:40:17;;;;;;;9.02;2.00;;;;;;;;;;4992833;28;20113;-67
2022/05/14 14:42:44;;;;;;;9.52;2.20;;;;;;;;;;4992370;28;20467;-66
2022/05/14 14:45:13;;;;;;;11.68;2.38;;;;;;;;;;4991935;28;20026;-66
2022/05/14 14:47:49;;;;;;;11.45;2.63;;;;;;;;;;5012013;28;20022;-66
2022/05/14 14:50:17;;;;;;;9.57;2.15;;;;;;;;;;5012132;28;20038;-66
2022/05/14 14:52:43;;;;;;;9.70;2.22;;;;;;;;;;5011918;28;20033;-65
2022/05/14 14:55:09;;;;;;;11.07;2.10;;;;;;;;;;5011064;28;20018;-65
2022/05/14 14:57:36;;;;;;;11.45;2.30;;;;;;;;;;5011480;28;20029;-64
2022/05/14 15:00:02;;;;;;;9.75;2.10;;;;;;;;;;5011692;28;20075;-65
2022/05/14 15:02:34;;;;;;;12.38;2.30;;;;;;;;;;5011873;28;20022;-66
2022/05/14 15:05:04;;;;;;;7.95;2.13;;;;;;;;;;5011362;28;20032;-67